UAL1372 KLAX-KSFO
Flight info
| Callsign | UAL1372 |
|---|---|
| Flight time | N/A |
| Altitude | 36000 |
| Route | SUMMR2 STOKD SERFR SERFR4 |
| Aircraft | A320/M-SDE3FGHIRWY/LB1 |
Departure
| Time | 2026-04-20 19:45 |
|---|---|
| Airport | Los Angeles International Airport (KLAX) |
Arrival
| Time | N/A |
|---|---|
| Airport | San Francisco International Airport (KSFO) |
| Time | Latitude | Longitude | Altitude | Speed | Heading |
|---|---|---|---|---|---|
| 2026-04-20 19:00 | 33.94169 | -118.39767 | 93 ft | 0 kts | 82° |
| 2026-04-20 19:02 | 33.94169 | -118.39765 | 93 ft | 0 kts | 83° |
| 2026-04-20 19:29 | 33.94168 | -118.39778 | 93 ft | 4 kts | 83° |
| 2026-04-20 19:29 | 33.94165 | -118.39805 | 93 ft | 2 kts | 83° |
| 2026-04-20 19:29 | 33.94166 | -118.39831 | 93 ft | 4 kts | 139° |
| 2026-04-20 19:30 | 33.94177 | -118.39838 | 93 ft | 0 kts | 173° |
| 2026-04-20 19:30 | 33.94153 | -118.39834 | 95 ft | 4 kts | 173° |
| 2026-04-20 19:30 | 33.94126 | -118.39830 | 95 ft | 4 kts | 173° |
| 2026-04-20 19:30 | 33.94099 | -118.39826 | 93 ft | 4 kts | 173° |
| 2026-04-20 19:31 | 33.94078 | -118.39824 | 93 ft | 4 kts | 178° |
| 2026-04-20 19:31 | 33.94052 | -118.39828 | 93 ft | 4 kts | 185° |
| 2026-04-20 19:31 | 33.94036 | -118.39827 | 93 ft | 0 kts | 173° |
| 2026-04-20 19:36 | 33.94031 | -118.39826 | 95 ft | 2 kts | 173° |
| 2026-04-20 19:36 | 33.94008 | -118.39821 | 93 ft | 5 kts | 163° |
| 2026-04-20 19:36 | 33.93988 | -118.39785 | 95 ft | 7 kts | 105° |
| 2026-04-20 19:36 | 33.93989 | -118.39719 | 94 ft | 9 kts | 83° |
| 2026-04-20 19:37 | 33.93998 | -118.39632 | 94 ft | 12 kts | 83° |
| 2026-04-20 19:37 | 33.94009 | -118.39529 | 93 ft | 13 kts | 83° |
| 2026-04-20 19:37 | 33.94020 | -118.39422 | 93 ft | 9 kts | 83° |
| 2026-04-20 19:37 | 33.94029 | -118.39337 | 94 ft | 9 kts | 82° |
| 2026-04-20 19:38 | 33.94038 | -118.39250 | 94 ft | 11 kts | 83° |
| 2026-04-20 19:38 | 33.94047 | -118.39163 | 93 ft | 10 kts | 83° |
| 2026-04-20 19:38 | 33.94055 | -118.39068 | 95 ft | 12 kts | 87° |
| 2026-04-20 19:38 | 33.94057 | -118.38975 | 93 ft | 11 kts | 82° |
| 2026-04-20 19:39 | 33.94068 | -118.38872 | 93 ft | 14 kts | 85° |
| 2026-04-20 19:39 | 33.94079 | -118.38762 | 93 ft | 13 kts | 81° |
| 2026-04-20 19:39 | 33.94091 | -118.38646 | 94 ft | 15 kts | 83° |
| 2026-04-20 19:39 | 33.94104 | -118.38512 | 94 ft | 16 kts | 84° |
| 2026-04-20 19:40 | 33.94115 | -118.38405 | 95 ft | 8 kts | 82° |
| 2026-04-20 19:40 | 33.94090 | -118.38347 | 96 ft | 9 kts | 140° |
| 2026-04-20 19:40 | 33.94056 | -118.38284 | 96 ft | 10 kts | 96° |
| 2026-04-20 19:40 | 33.94064 | -118.38186 | 94 ft | 14 kts | 83° |
| 2026-04-20 19:41 | 33.94074 | -118.38088 | 93 ft | 0 kts | 83° |
| 2026-04-20 19:42 | 33.94074 | -118.38082 | 93 ft | 2 kts | 83° |
| 2026-04-20 19:42 | 33.94076 | -118.38047 | 93 ft | 6 kts | 91° |
| 2026-04-20 19:42 | 33.94069 | -118.38019 | 94 ft | 0 kts | 121° |
| 2026-04-20 19:43 | 33.94066 | -118.38015 | 94 ft | 2 kts | 129° |
| 2026-04-20 19:43 | 33.94045 | -118.38003 | 93 ft | 5 kts | 162° |
| 2026-04-20 19:43 | 33.94004 | -118.38002 | 95 ft | 7 kts | 193° |
| 2026-04-20 19:44 | 33.93981 | -118.38059 | 94 ft | 9 kts | 262° |
| 2026-04-20 19:44 | 33.93960 | -118.38260 | 98 ft | 56 kts | 263° |
| 2026-04-20 19:44 | 33.93883 | -118.39004 | 95 ft | 120 kts | 263° |
| 2026-04-20 19:44 | 33.93758 | -118.40209 | 143 ft | 165 kts | 263° |
| 2026-04-20 19:45 | 33.93605 | -118.41633 | 686 ft | 177 kts | 261° |
| 2026-04-20 19:45 | 33.93417 | -118.43187 | 1168 ft | 204 kts | 259° |
| 2026-04-20 19:45 | 33.93216 | -118.44998 | 1645 ft | 233 kts | 263° |
| 2026-04-20 19:45 | 33.93023 | -118.47045 | 2213 ft | 254 kts | 263° |
| 2026-04-20 19:46 | 33.92825 | -118.49191 | 3190 ft | 261 kts | 263° |
| 2026-04-20 19:46 | 33.92646 | -118.51410 | 4078 ft | 270 kts | 264° |
| 2026-04-20 19:46 | 33.92487 | -118.53668 | 5088 ft | 271 kts | 264° |
| 2026-04-20 19:46 | 33.92340 | -118.55949 | 6092 ft | 273 kts | 262° |
| 2026-04-20 19:47 | 33.92176 | -118.58235 | 7076 ft | 275 kts | 262° |
| 2026-04-20 19:47 | 33.92010 | -118.60533 | 8023 ft | 278 kts | 262° |
| 2026-04-20 19:47 | 33.91831 | -118.62880 | 8916 ft | 283 kts | 263° |
| 2026-04-20 19:47 | 33.91836 | -118.65270 | 9858 ft | 287 kts | 268° |
| 2026-04-20 19:48 | 33.91860 | -118.67709 | 10538 ft | 298 kts | 267° |
| 2026-04-20 19:48 | 33.91848 | -118.70309 | 10844 ft | 321 kts | 266° |
| 2026-04-20 19:48 | 33.91796 | -118.73003 | 11393 ft | 331 kts | 265° |
| 2026-04-20 19:48 | 33.91746 | -118.75793 | 12005 ft | 333 kts | 265° |
| 2026-04-20 19:49 | 33.91710 | -118.78584 | 12086 ft | 333 kts | 266° |
| 2026-04-20 19:49 | 33.91704 | -118.81369 | 12013 ft | 331 kts | 267° |
| 2026-04-20 19:49 | 33.91713 | -118.84136 | 11983 ft | 331 kts | 267° |
| 2026-04-20 19:49 | 33.91743 | -118.86925 | 12409 ft | 334 kts | 268° |
| 2026-04-20 19:50 | 33.91821 | -118.89728 | 13238 ft | 337 kts | 269° |
| 2026-04-20 19:50 | 33.91929 | -118.92555 | 14032 ft | 340 kts | 269° |
| 2026-04-20 19:50 | 33.92067 | -118.95406 | 14767 ft | 342 kts | 269° |
| 2026-04-20 19:50 | 33.92210 | -118.98268 | 15491 ft | 344 kts | 269° |
| 2026-04-20 19:51 | 33.92568 | -119.01149 | 16146 ft | 353 kts | 279° |
| 2026-04-20 19:51 | 33.93428 | -119.03950 | 16816 ft | 363 kts | 292° |
| 2026-04-20 19:51 | 33.94741 | -119.06579 | 17542 ft | 368 kts | 297° |
| 2026-04-20 19:51 | 33.96106 | -119.09198 | 18233 ft | 371 kts | 296° |
| 2026-04-20 19:52 | 33.97482 | -119.11843 | 18852 ft | 374 kts | 296° |
| 2026-04-20 19:52 | 33.98869 | -119.14514 | 19465 ft | 377 kts | 296° |
| 2026-04-20 19:52 | 34.00330 | -119.17163 | 20085 ft | 384 kts | 303° |
| 2026-04-20 19:52 | 34.02178 | -119.19543 | 20692 ft | 394 kts | 314° |
| 2026-04-20 19:53 | 34.04384 | -119.21565 | 21309 ft | 400 kts | 320° |
| 2026-04-20 19:53 | 34.06634 | -119.23490 | 21903 ft | 403 kts | 320° |
| 2026-04-20 19:53 | 34.08932 | -119.25455 | 22497 ft | 407 kts | 320° |
| 2026-04-20 19:53 | 34.11250 | -119.27442 | 23037 ft | 411 kts | 320° |
| 2026-04-20 19:54 | 34.13591 | -119.29452 | 23624 ft | 414 kts | 320° |
| 2026-04-20 19:54 | 34.15944 | -119.31480 | 24102 ft | 417 kts | 320° |
| 2026-04-20 19:54 | 34.18315 | -119.33530 | 24585 ft | 420 kts | 320° |
| 2026-04-20 19:54 | 34.20705 | -119.35596 | 25053 ft | 423 kts | 320° |
| 2026-04-20 19:55 | 34.23107 | -119.37669 | 25532 ft | 426 kts | 320° |
| 2026-04-20 19:55 | 34.25528 | -119.39756 | 25991 ft | 428 kts | 320° |
| 2026-04-20 19:55 | 34.27961 | -119.41851 | 26441 ft | 431 kts | 320° |
| 2026-04-20 19:55 | 34.30416 | -119.43973 | 26882 ft | 434 kts | 320° |
| 2026-04-20 19:56 | 34.32045 | -119.45382 | 27164 ft | 436 kts | 320° |
| 2026-04-20 19:56 | 34.35357 | -119.48247 | 27731 ft | 439 kts | 320° |
| 2026-04-20 19:56 | 34.37824 | -119.50390 | 28136 ft | 442 kts | 320° |
| 2026-04-20 19:56 | 34.40318 | -119.52585 | 28568 ft | 444 kts | 318° |
| 2026-04-20 19:57 | 34.42610 | -119.55078 | 28972 ft | 443 kts | 310° |
| 2026-04-20 19:57 | 34.44783 | -119.57750 | 29405 ft | 445 kts | 310° |
| 2026-04-20 19:57 | 34.46965 | -119.60435 | 29813 ft | 448 kts | 310° |
| 2026-04-20 19:57 | 34.49160 | -119.63139 | 30208 ft | 451 kts | 311° |
| 2026-04-20 19:58 | 34.51367 | -119.65856 | 30537 ft | 453 kts | 311° |
| 2026-04-20 19:58 | 34.53585 | -119.68586 | 30867 ft | 456 kts | 311° |
| 2026-04-20 19:58 | 34.55821 | -119.71342 | 31216 ft | 459 kts | 310° |
| 2026-04-20 19:58 | 34.58068 | -119.74118 | 31551 ft | 461 kts | 310° |
| 2026-04-20 19:59 | 34.60320 | -119.76901 | 31876 ft | 464 kts | 310° |
| 2026-04-20 19:59 | 34.62588 | -119.79700 | 32257 ft | 464 kts | 310° |
| 2026-04-20 19:59 | 34.64848 | -119.82489 | 32744 ft | 463 kts | 310° |
| 2026-04-20 19:59 | 34.67104 | -119.85271 | 33271 ft | 462 kts | 310° |
| 2026-04-20 20:00 | 34.69358 | -119.88054 | 33774 ft | 460 kts | 310° |
| 2026-04-20 20:00 | 34.71566 | -119.90790 | 34244 ft | 459 kts | 310° |
| 2026-04-20 20:00 | 34.73826 | -119.93602 | 34660 ft | 459 kts | 310° |
| 2026-04-20 20:00 | 34.76056 | -119.96380 | 35017 ft | 459 kts | 310° |
| 2026-04-20 20:01 | 34.78258 | -119.99120 | 35398 ft | 458 kts | 310° |
| 2026-04-20 20:01 | 34.80482 | -120.01885 | 35758 ft | 457 kts | 310° |
| 2026-04-20 20:01 | 34.82708 | -120.04653 | 35996 ft | 458 kts | 310° |
| 2026-04-20 20:02 | 34.87122 | -120.10149 | 36045 ft | 450 kts | 310° |
| 2026-04-20 20:02 | 34.91475 | -120.15589 | 36054 ft | 449 kts | 309° |
| 2026-04-20 20:03 | 34.95837 | -120.21051 | 36057 ft | 449 kts | 309° |
| 2026-04-20 20:03 | 35.00194 | -120.26509 | 36055 ft | 449 kts | 310° |
| 2026-04-20 20:04 | 35.04525 | -120.31935 | 36064 ft | 449 kts | 309° |
| 2026-04-20 20:04 | 35.08876 | -120.37403 | 36068 ft | 449 kts | 310° |
| 2026-04-20 20:05 | 35.13417 | -120.42707 | 36084 ft | 451 kts | 313° |
| 2026-04-20 20:05 | 35.18105 | -120.47823 | 36087 ft | 452 kts | 314° |
| 2026-04-20 20:06 | 35.22783 | -120.52942 | 36085 ft | 451 kts | 313° |
| 2026-04-20 20:06 | 35.27412 | -120.58131 | 36090 ft | 451 kts | 313° |
| 2026-04-20 20:07 | 35.32014 | -120.63357 | 36089 ft | 451 kts | 313° |
| 2026-04-20 20:07 | 35.36628 | -120.68587 | 36088 ft | 452 kts | 313° |
| 2026-04-20 20:08 | 35.40472 | -120.72921 | 36089 ft | 452 kts | 313° |
| 2026-04-20 20:08 | 35.45096 | -120.78130 | 36083 ft | 452 kts | 313° |
| 2026-04-20 20:09 | 35.49839 | -120.83205 | 36087 ft | 455 kts | 319° |
| 2026-04-20 20:09 | 35.54895 | -120.87889 | 36088 ft | 455 kts | 319° |
| 2026-04-20 20:10 | 35.59961 | -120.92575 | 36090 ft | 456 kts | 319° |
| 2026-04-20 20:10 | 35.64979 | -120.97265 | 36076 ft | 457 kts | 318° |
| 2026-04-20 20:11 | 35.70054 | -121.02005 | 36080 ft | 458 kts | 318° |
| 2026-04-20 20:11 | 35.75134 | -121.06724 | 36091 ft | 457 kts | 318° |
| 2026-04-20 20:12 | 35.80205 | -121.11451 | 36087 ft | 456 kts | 318° |
| 2026-04-20 20:12 | 35.85270 | -121.16190 | 35797 ft | 457 kts | 318° |
| 2026-04-20 20:13 | 35.90360 | -121.20968 | 34412 ft | 453 kts | 318° |
| 2026-04-20 20:13 | 35.92853 | -121.23302 | 33926 ft | 447 kts | 318° |
| 2026-04-20 20:13 | 35.95282 | -121.25577 | 33395 ft | 441 kts | 317° |
| 2026-04-20 20:13 | 35.97702 | -121.27844 | 32902 ft | 434 kts | 317° |
| 2026-04-20 20:14 | 36.00087 | -121.30090 | 32421 ft | 428 kts | 317° |
| 2026-04-20 20:14 | 36.02436 | -121.32309 | 31927 ft | 422 kts | 317° |
| 2026-04-20 20:14 | 36.04767 | -121.34509 | 31487 ft | 421 kts | 317° |
| 2026-04-20 20:14 | 36.07112 | -121.36668 | 31058 ft | 422 kts | 321° |
| 2026-04-20 20:15 | 36.09605 | -121.38619 | 30613 ft | 423 kts | 322° |
| 2026-04-20 20:15 | 36.12093 | -121.40553 | 30184 ft | 422 kts | 322° |
| 2026-04-20 20:15 | 36.14578 | -121.42492 | 29714 ft | 422 kts | 322° |
| 2026-04-20 20:15 | 36.17050 | -121.44423 | 29290 ft | 419 kts | 322° |
| 2026-04-20 20:16 | 36.19509 | -121.46344 | 28880 ft | 415 kts | 322° |
| 2026-04-20 20:16 | 36.21945 | -121.48245 | 28483 ft | 413 kts | 321° |
| 2026-04-20 20:16 | 36.24369 | -121.50140 | 28085 ft | 411 kts | 321° |
| 2026-04-20 20:16 | 36.26782 | -121.52029 | 27695 ft | 410 kts | 321° |
| 2026-04-20 20:17 | 36.29187 | -121.53915 | 27292 ft | 408 kts | 321° |
| 2026-04-20 20:17 | 36.31550 | -121.55769 | 26905 ft | 406 kts | 321° |
| 2026-04-20 20:17 | 36.33917 | -121.57625 | 26508 ft | 403 kts | 321° |
| 2026-04-20 20:17 | 36.36294 | -121.59487 | 26108 ft | 401 kts | 321° |
| 2026-04-20 20:18 | 36.38645 | -121.61331 | 25704 ft | 400 kts | 320° |
| 2026-04-20 20:18 | 36.40988 | -121.63174 | 25293 ft | 399 kts | 320° |
| 2026-04-20 20:18 | 36.43315 | -121.65005 | 24883 ft | 398 kts | 320° |
| 2026-04-20 20:18 | 36.45626 | -121.66828 | 24449 ft | 398 kts | 320° |
| 2026-04-20 20:19 | 36.47978 | -121.68681 | 24025 ft | 397 kts | 320° |
| 2026-04-20 20:19 | 36.50306 | -121.70518 | 23583 ft | 397 kts | 320° |
| 2026-04-20 20:19 | 36.52632 | -121.72357 | 23119 ft | 395 kts | 320° |
| 2026-04-20 20:19 | 36.54934 | -121.74169 | 22981 ft | 387 kts | 320° |
| 2026-04-20 20:20 | 36.57211 | -121.75964 | 22878 ft | 387 kts | 319° |
| 2026-04-20 20:20 | 36.59446 | -121.77732 | 22180 ft | 384 kts | 320° |
| 2026-04-20 20:20 | 36.61693 | -121.79515 | 21400 ft | 381 kts | 320° |
| 2026-04-20 20:20 | 36.63899 | -121.81261 | 20973 ft | 369 kts | 319° |
| 2026-04-20 20:21 | 36.66034 | -121.82949 | 20561 ft | 357 kts | 319° |
| 2026-04-20 20:21 | 36.68123 | -121.84605 | 20168 ft | 356 kts | 319° |
| 2026-04-20 20:21 | 36.70211 | -121.86272 | 19764 ft | 356 kts | 319° |
| 2026-04-20 20:21 | 36.72290 | -121.87934 | 19394 ft | 355 kts | 319° |
| 2026-04-20 20:22 | 36.74338 | -121.89640 | 19068 ft | 351 kts | 314° |
| 2026-04-20 20:22 | 36.76244 | -121.91588 | 18622 ft | 356 kts | 311° |
| 2026-04-20 20:22 | 36.78142 | -121.93580 | 18182 ft | 356 kts | 311° |
| 2026-04-20 20:22 | 36.80035 | -121.95569 | 17748 ft | 354 kts | 311° |
| 2026-04-20 20:23 | 36.81916 | -121.97545 | 17358 ft | 352 kts | 312° |
| 2026-04-20 20:23 | 36.83781 | -121.99505 | 16977 ft | 349 kts | 312° |
| 2026-04-20 20:23 | 36.85624 | -122.01440 | 16596 ft | 347 kts | 312° |
| 2026-04-20 20:23 | 36.87472 | -122.03381 | 16213 ft | 345 kts | 313° |
| 2026-04-20 20:24 | 36.89276 | -122.05283 | 15834 ft | 343 kts | 313° |
| 2026-04-20 20:24 | 36.91093 | -122.07200 | 15446 ft | 342 kts | 313° |
| 2026-04-20 20:24 | 36.92911 | -122.09119 | 15074 ft | 341 kts | 313° |
| 2026-04-20 20:24 | 36.94728 | -122.11035 | 14697 ft | 341 kts | 313° |
| 2026-04-20 20:25 | 36.96541 | -122.12945 | 14305 ft | 340 kts | 313° |
| 2026-04-20 20:25 | 36.98352 | -122.14858 | 13913 ft | 341 kts | 314° |
| 2026-04-20 20:25 | 37.00160 | -122.16773 | 13516 ft | 340 kts | 314° |
| 2026-04-20 20:25 | 37.01957 | -122.18675 | 13131 ft | 338 kts | 314° |
| 2026-04-20 20:26 | 37.03748 | -122.20567 | 12806 ft | 334 kts | 314° |
| 2026-04-20 20:26 | 37.05522 | -122.22445 | 12438 ft | 332 kts | 314° |
| 2026-04-20 20:26 | 37.07276 | -122.24303 | 12057 ft | 330 kts | 314° |
| 2026-04-20 20:26 | 37.09017 | -122.26153 | 11651 ft | 328 kts | 314° |
| 2026-04-20 20:27 | 37.10755 | -122.28006 | 11290 ft | 326 kts | 314° |
| 2026-04-20 20:27 | 37.12459 | -122.29823 | 11106 ft | 319 kts | 314° |
| 2026-04-20 20:27 | 37.14130 | -122.31628 | 10835 ft | 317 kts | 314° |
| 2026-04-20 20:27 | 37.15789 | -122.33445 | 10500 ft | 317 kts | 313° |
| 2026-04-20 20:28 | 37.17436 | -122.35257 | 10257 ft | 313 kts | 313° |
| 2026-04-20 20:28 | 37.19043 | -122.37032 | 10028 ft | 311 kts | 313° |
| 2026-04-20 20:28 | 37.20660 | -122.38825 | 9802 ft | 310 kts | 312° |
| 2026-04-20 20:28 | 37.22272 | -122.40611 | 9567 ft | 308 kts | 312° |
| 2026-04-20 20:29 | 37.23878 | -122.42384 | 9336 ft | 307 kts | 312° |
| 2026-04-20 20:29 | 37.25484 | -122.44153 | 9127 ft | 307 kts | 313° |
| 2026-04-20 20:29 | 37.27086 | -122.45918 | 8896 ft | 305 kts | 313° |
| 2026-04-20 20:29 | 37.28675 | -122.47672 | 8693 ft | 304 kts | 313° |
| 2026-04-20 20:30 | 37.30259 | -122.49422 | 8477 ft | 303 kts | 313° |
| 2026-04-20 20:30 | 37.31840 | -122.51164 | 8257 ft | 302 kts | 313° |
| 2026-04-20 20:30 | 37.33416 | -122.52900 | 8045 ft | 300 kts | 313° |
| 2026-04-20 20:30 | 37.34982 | -122.54626 | 7827 ft | 299 kts | 313° |
| 2026-04-20 20:31 | 37.36545 | -122.56351 | 7617 ft | 298 kts | 313° |
| 2026-04-20 20:31 | 37.38095 | -122.58067 | 7398 ft | 297 kts | 313° |
| 2026-04-20 20:31 | 37.39648 | -122.59786 | 7186 ft | 296 kts | 313° |
| 2026-04-20 20:31 | 37.41194 | -122.61496 | 6978 ft | 296 kts | 314° |
| 2026-04-20 20:32 | 37.42737 | -122.63201 | 6774 ft | 294 kts | 313° |
| 2026-04-20 20:32 | 37.44267 | -122.64896 | 6550 ft | 292 kts | 313° |
| 2026-04-20 20:32 | 37.45763 | -122.66558 | 6404 ft | 287 kts | 313° |
| 2026-04-20 20:32 | 37.47239 | -122.68199 | 6279 ft | 280 kts | 313° |
| 2026-04-20 20:33 | 37.48681 | -122.69802 | 6157 ft | 274 kts | 312° |
| 2026-04-20 20:33 | 37.50093 | -122.71368 | 6028 ft | 266 kts | 312° |
| 2026-04-20 20:33 | 37.51484 | -122.72836 | 6006 ft | 253 kts | 315° |
| 2026-04-20 20:33 | 37.52843 | -122.74142 | 6007 ft | 239 kts | 317° |
| 2026-04-20 20:34 | 37.54166 | -122.75381 | 6009 ft | 236 kts | 316° |
| 2026-04-20 20:34 | 37.55494 | -122.76586 | 6006 ft | 238 kts | 324° |
| 2026-04-20 20:34 | 37.57098 | -122.77140 | 6013 ft | 245 kts | 356° |
| 2026-04-20 20:34 | 37.58815 | -122.77100 | 6010 ft | 246 kts | 2° |
| 2026-04-20 20:35 | 37.60543 | -122.76966 | 5707 ft | 254 kts | 2° |
| 2026-04-20 20:35 | 37.62336 | -122.76798 | 5203 ft | 264 kts | 2° |
| 2026-04-20 20:35 | 37.64192 | -122.76616 | 4692 ft | 271 kts | 2° |
| 2026-04-20 20:35 | 37.66077 | -122.76420 | 4194 ft | 280 kts | 3° |
| 2026-04-20 20:36 | 37.68014 | -122.76216 | 3997 ft | 276 kts | 2° |
| 2026-04-20 20:36 | 37.69884 | -122.76001 | 3996 ft | 262 kts | 3° |
| 2026-04-20 20:36 | 37.71645 | -122.75806 | 3998 ft | 245 kts | 3° |
| 2026-04-20 20:36 | 37.73320 | -122.75621 | 4007 ft | 240 kts | 3° |
| 2026-04-20 20:37 | 37.74954 | -122.75247 | 3998 ft | 239 kts | 23° |
| 2026-04-20 20:37 | 37.76304 | -122.74082 | 3993 ft | 235 kts | 53° |
| 2026-04-20 20:37 | 37.77085 | -122.72331 | 3816 ft | 223 kts | 83° |
| 2026-04-20 20:37 | 37.77183 | -122.70473 | 3753 ft | 204 kts | 108° |
| 2026-04-20 20:38 | 37.76747 | -122.68868 | 3704 ft | 186 kts | 130° |
| 2026-04-20 20:38 | 37.76086 | -122.67473 | 3668 ft | 185 kts | 130° |
| 2026-04-20 20:38 | 37.75429 | -122.66073 | 3618 ft | 186 kts | 130° |
| 2026-04-20 20:38 | 37.74769 | -122.64661 | 3517 ft | 186 kts | 130° |
| 2026-04-20 20:39 | 37.74112 | -122.63255 | 3342 ft | 185 kts | 131° |
| 2026-04-20 20:39 | 37.73461 | -122.61856 | 3145 ft | 185 kts | 131° |
| 2026-04-20 20:39 | 37.72819 | -122.60473 | 3036 ft | 181 kts | 130° |
| 2026-04-20 20:39 | 37.72184 | -122.59117 | 2992 ft | 178 kts | 131° |
| 2026-04-20 20:40 | 37.71556 | -122.57784 | 2778 ft | 176 kts | 131° |
| 2026-04-20 20:40 | 37.70935 | -122.56469 | 2618 ft | 170 kts | 131° |
| 2026-04-20 20:40 | 37.70351 | -122.55224 | 2504 ft | 160 kts | 131° |
| 2026-04-20 20:40 | 37.69800 | -122.54050 | 2384 ft | 150 kts | 131° |
| 2026-04-20 20:41 | 37.69290 | -122.52961 | 2307 ft | 141 kts | 132° |
| 2026-04-20 20:41 | 37.68796 | -122.51917 | 2171 ft | 136 kts | 132° |
| 2026-04-20 20:41 | 37.68327 | -122.50922 | 2035 ft | 128 kts | 132° |
| 2026-04-20 20:41 | 37.67878 | -122.49970 | 2031 ft | 126 kts | 132° |
| 2026-04-20 20:42 | 37.67428 | -122.49023 | 2024 ft | 126 kts | 131° |
| 2026-04-20 20:42 | 37.67282 | -122.48716 | 2003 ft | 127 kts | 131° |